Time;durP1;ratioP1;P1;durP2;ratioP2;P2;SDS_P1;SDS_P2;PMS_P1;PMS_P2;Temp;Humidity;BMP_temperature;BMP_pressure;BME280_temperature;BME280_humidity;BME280_pressure;Samples;Min_cycle;Max_cycle;Signal;HPM_P1;HPM_P2
2023/10/31 00:00:58;;;;;;;14.23;9.45;;;12.50;99.90;;;;;;5026603;28;20062;-40
2023/10/31 00:03:26;;;;;;;11.20;8.52;;;12.50;99.90;;;;;;5031336;28;20446;-37
2023/10/31 00:05:53;;;;;;;13.07;9.52;;;12.40;99.90;;;;;;5031552;28;20045;-37
2023/10/31 00:08:20;;;;;;;14.10;8.52;;;12.50;99.90;;;;;;5033637;28;20544;-38
2023/10/31 00:10:47;;;;;;;17.08;9.10;;;12.40;99.90;;;;;;5042649;28;20051;-37
2023/10/31 00:13:14;;;;;;;12.82;8.07;;;12.40;99.90;;;;;;5045304;28;20044;-38
2023/10/31 00:15:42;;;;;;;12.82;9.20;;;12.40;99.90;;;;;;5037191;28;20045;-38
2023/10/31 00:18:09;;;;;;;13.75;8.80;;;12.40;99.90;;;;;;5033193;28;20041;-37
2023/10/31 00:20:36;;;;;;;14.68;8.27;;;12.40;99.90;;;;;;5031452;28;20045;-37
2023/10/31 00:23:03;;;;;;;13.10;8.93;;;12.40;99.90;;;;;;5027690;28;20045;-38
2023/10/31 00:25:30;;;;;;;14.18;8.93;;;12.40;99.90;;;;;;5024646;28;20396;-40
2023/10/31 00:27:58;;;;;;;11.55;7.75;;;12.40;99.90;;;;;;5036157;28;20044;-39
2023/10/31 00:30:25;;;;;;;12.15;8.05;;;12.40;99.90;;;;;;5039856;28;20053;-38
2023/10/31 00:32:52;;;;;;;10.40;7.30;;;12.40;99.90;;;;;;5038466;28;20064;-36
2023/10/31 00:35:20;;;;;;;9.65;6.30;;;12.40;99.90;;;;;;5032199;28;20050;-39
2023/10/31 00:37:47;;;;;;;9.02;6.55;;;12.40;99.90;;;;;;5029575;28;20068;-39
2023/10/31 00:40:16;;;;;;;9.20;6.95;;;12.40;99.90;;;;;;5029987;28;20053;-39
2023/10/31 00:42:43;;;;;;;12.02;7.13;;;12.40;99.90;;;;;;5038519;28;20053;-37
2023/10/31 00:45:13;;;;;;;9.95;6.13;;;12.40;99.90;;;;;;5032088;28;20120;-39
2023/10/31 00:47:41;;;;;;;11.27;6.78;;;12.30;99.90;;;;;;5019826;28;20111;-37
2023/10/31 00:50:08;;;;;;;12.50;7.43;;;12.30;99.90;;;;;;5030782;28;20067;-40
2023/10/31 00:52:36;;;;;;;10.02;7.13;;;12.20;99.90;;;;;;5032433;28;20076;-39
2023/10/31 00:55:04;;;;;;;10.02;6.78;;;12.20;99.90;;;;;;5040420;28;20128;-40
2023/10/31 00:57:31;;;;;;;9.48;7.00;;;12.20;99.90;;;;;;5030520;28;20045;-40
2023/10/31 00:59:58;;;;;;;10.32;7.10;;;12.30;99.90;;;;;;5028725;28;20136;-38
2023/10/31 01:02:25;;;;;;;9.57;6.57;;;12.30;99.90;;;;;;5030109;28;20049;-39
2023/10/31 01:04:52;;;;;;;10.15;6.32;;;12.30;99.90;;;;;;5029940;28;20052;-40
2023/10/31 01:07:19;;;;;;;8.50;5.72;;;12.20;99.90;;;;;;5032991;28;20052;-38
2023/10/31 01:09:46;;;;;;;8.45;5.55;;;12.20;99.90;;;;;;5040652;28;20045;-39
2023/10/31 01:12:13;;;;;;;6.82;4.75;;;12.30;99.90;;;;;;5040967;28;20041;-36
2023/10/31 01:14:40;;;;;;;7.32;5.40;;;12.20;99.90;;;;;;5040989;28;20060;-39
2023/10/31 01:17:07;;;;;;;7.22;5.10;;;12.20;99.90;;;;;;5040936;28;20234;-39
2023/10/31 01:19:34;;;;;;;7.43;5.68;;;12.20;99.90;;;;;;5047101;28;20063;-38
2023/10/31 01:22:01;;;;;;;7.82;5.38;;;12.20;99.90;;;;;;5039762;28;20060;-38
2023/10/31 01:24:28;;;;;;;7.30;4.72;;;12.20;99.90;;;;;;5043393;28;20111;-39
2023/10/31 01:26:55;;;;;;;6.28;4.43;;;12.20;99.90;;;;;;5042429;28;20072;-37
2023/10/31 01:29:22;;;;;;;6.72;4.18;;;12.20;99.90;;;;;;5040593;28;20045;-40
2023/10/31 01:31:49;;;;;;;6.32;4.28;;;12.20;99.90;;;;;;5040406;28;20075;-38
2023/10/31 01:34:27;;;;;;;5.18;3.55;;;12.20;99.90;;;;;;5044137;28;20045;-37
2023/10/31 01:36:54;;;;;;;4.75;2.60;;;12.20;99.90;;;;;;5043231;28;20140;-40
2023/10/31 01:39:21;;;;;;;4.75;2.80;;;12.10;99.90;;;;;;5039000;28;20053;-38
2023/10/31 01:41:49;;;;;;;4.53;2.75;;;12.10;99.90;;;;;;5040012;28;20088;-39
2023/10/31 01:44:16;;;;;;;6.78;2.33;;;12.10;99.90;;;;;;5038670;28;20069;-38
2023/10/31 01:46:43;;;;;;;3.88;2.25;;;12.10;99.90;;;;;;5028985;28;20525;-37
2023/10/31 01:49:10;;;;;;;3.58;2.00;;;12.10;99.90;;;;;;5026686;28;20052;-38
2023/10/31 01:51:37;;;;;;;2.72;1.60;;;12.10;99.90;;;;;;5026313;28;20327;-39
2023/10/31 01:54:04;;;;;;;2.83;1.70;;;12.10;99.90;;;;;;5029440;28;20042;-38
2023/10/31 01:56:31;;;;;;;3.42;1.67;;;12.10;99.90;;;;;;5029418;28;20050;-40
2023/10/31 01:58:58;;;;;;;2.72;1.23;;;12.10;99.90;;;;;;5029269;28;20041;-40
2023/10/31 02:01:25;;;;;;;2.20;1.40;;;12.10;99.90;;;;;;5027620;28;20485;-38
2023/10/31 02:04:02;;;;;;;3.70;1.40;;;12.10;99.90;;;;;;5029114;28;20124;-37
2023/10/31 02:06:30;;;;;;;2.30;1.30;;;12.20;99.90;;;;;;5027846;28;20046;-40
2023/10/31 02:08:57;;;;;;;1.90;1.15;;;12.10;99.90;;;;;;5029512;28;20038;-39
2023/10/31 02:11:24;;;;;;;1.77;0.95;;;12.10;99.90;;;;;;5029109;28;20049;-39
2023/10/31 02:13:51;;;;;;;1.60;1.00;;;12.10;99.90;;;;;;5010745;28;20042;-39
2023/10/31 02:16:18;;;;;;;1.75;1.00;;;12.10;99.90;;;;;;5024601;28;20588;-36
2023/10/31 02:18:45;;;;;;;1.77;1.00;;;12.10;99.90;;;;;;5028201;28;20418;-38
2023/10/31 02:21:12;;;;;;;2.65;1.13;;;12.00;99.90;;;;;;5028641;28;20166;-36
2023/10/31 02:23:40;;;;;;;1.42;0.90;;;12.00;99.90;;;;;;5028599;28;20210;-39
2023/10/31 02:26:07;;;;;;;2.22;0.90;;;12.00;99.90;;;;;;5028413;28;20394;-38
2023/10/31 02:28:34;;;;;;;1.33;0.80;;;12.00;99.90;;;;;;5027855;28;20099;-39
2023/10/31 02:31:01;;;;;;;1.63;1.02;;;12.00;99.90;;;;;;5033875;28;20159;-38
2023/10/31 02:33:46;;;;;;;1.67;0.80;;;11.90;99.90;;;;;;5029400;28;20460;-39
2023/10/31 02:36:13;;;;;;;0.98;0.77;;;11.90;99.90;;;;;;5029268;28;20088;-37
2023/10/31 02:38:40;;;;;;;2.35;0.85;;;11.90;99.90;;;;;;5026775;28;20053;-37
2023/10/31 02:41:07;;;;;;;2.83;0.90;;;11.80;99.90;;;;;;5024775;28;20049;-39
2023/10/31 02:43:38;;;;;;;2.75;0.90;;;11.80;99.90;;;;;;5031782;28;20116;-38
2023/10/31 02:46:06;;;;;;;1.25;0.80;;;11.80;99.90;;;;;;5034062;28;20419;-36
2023/10/31 02:48:39;;;;;;;1.33;0.90;;;11.80;99.90;;;;;;5024266;28;20124;-39
2023/10/31 02:51:07;;;;;;;2.88;0.93;;;11.80;99.90;;;;;;5030445;28;20069;-40
2023/10/31 02:53:35;;;;;;;1.08;0.80;;;11.80;99.90;;;;;;5028775;28;20056;-38
2023/10/31 02:56:03;;;;;;;1.73;0.80;;;11.80;99.90;;;;;;5031535;28;20389;-40
2023/10/31 02:58:31;;;;;;;1.73;1.08;;;11.80;99.90;;;;;;5025932;28;20144;-36
2023/10/31 03:00:59;;;;;;;1.13;0.90;;;11.80;99.90;;;;;;5034529;28;20080;-38
2023/10/31 03:03:25;;;;;;;2.08;1.08;;;11.80;99.90;;;;;;5027009;28;20146;-37
2023/10/31 03:05:53;;;;;;;2.35;1.20;;;11.70;99.90;;;;;;5028525;28;20049;-38
2023/10/31 03:08:20;;;;;;;1.50;0.90;;;11.70;99.90;;;;;;5036756;28;20063;-38
2023/10/31 03:10:52;;;;;;;1.50;0.95;;;11.70;99.90;;;;;;5025518;28;20049;-37
2023/10/31 03:13:20;;;;;;;3.15;1.00;;;11.70;99.90;;;;;;5030236;28;20065;-39
2023/10/31 03:15:49;;;;;;;1.65;1.05;;;11.70;99.90;;;;;;5028984;28;20049;-37
2023/10/31 03:18:16;;;;;;;4.88;1.08;;;11.60;99.90;;;;;;5033645;28;20034;-37
2023/10/31 03:20:47;;;;;;;1.25;1.05;;;11.60;99.90;;;;;;5022692;28;20041;-37
2023/10/31 03:23:14;;;;;;;2.38;1.00;;;11.50;99.90;;;;;;5029243;28;20064;-38
2023/10/31 03:25:41;;;;;;;2.30;1.15;;;11.40;99.90;;;;;;5030278;28;20083;-40
2023/10/31 03:28:23;;;;;;;2.40;1.33;;;11.40;99.90;;;;;;5026167;28;20103;-40
2023/10/31 03:30:50;;;;;;;2.05;1.10;;;11.20;99.90;;;;;;5030840;28;20457;-38
2023/10/31 03:33:18;;;;;;;3.00;1.20;;;11.20;99.90;;;;;;5045361;28;20049;-39
2023/10/31 03:35:45;;;;;;;1.58;1.10;;;11.10;99.90;;;;;;5043461;28;20037;-39
2023/10/31 03:38:13;;;;;;;4.13;1.25;;;11.10;99.90;;;;;;5039606;28;20072;-42
2023/10/31 03:40:41;;;;;;;2.05;1.30;;;11.10;99.90;;;;;;5036786;28;20063;-38
2023/10/31 03:43:11;;;;;;;2.20;1.33;;;11.10;99.90;;;;;;5031029;28;20486;-38
2023/10/31 03:45:38;;;;;;;1.70;1.20;;;11.10;99.90;;;;;;5029190;28;20126;-40
2023/10/31 03:48:07;;;;;;;3.05;1.05;;;11.10;99.90;;;;;;5026446;28;20042;-36
2023/10/31 03:50:34;;;;;;;2.00;1.17;;;11.10;99.90;;;;;;5022985;28;20056;-38
2023/10/31 03:53:01;;;;;;;2.13;1.10;;;11.10;99.90;;;;;;5029530;28;20327;-39
2023/10/31 03:55:30;;;;;;;1.52;0.90;;;11.10;99.90;;;;;;5026048;28;20049;-38
2023/10/31 03:57:57;;;;;;;2.55;1.10;;;11.10;99.90;;;;;;5031597;28;20037;-39
2023/10/31 04:00:24;;;;;;;2.25;1.10;;;11.00;99.90;;;;;;5042148;28;20096;-37
2023/10/31 04:02:51;;;;;;;3.28;1.20;;;11.00;99.90;;;;;;5037852;28;20399;-37
2023/10/31 04:05:18;;;;;;;2.10;1.38;;;10.90;99.90;;;;;;5042047;28;20076;-38
2023/10/31 04:07:46;;;;;;;3.03;1.20;;;10.90;99.90;;;;;;5039063;28;20133;-36
2023/10/31 04:10:14;;;;;;;3.55;1.23;;;10.80;99.90;;;;;;5032106;28;20045;-36
2023/10/31 04:12:42;;;;;;;2.78;1.27;;;10.80;99.90;;;;;;5025383;28;20126;-35
2023/10/31 04:15:09;;;;;;;2.88;1.30;;;10.80;99.90;;;;;;5029705;28;20037;-36
2023/10/31 04:17:37;;;;;;;3.20;1.58;;;10.70;99.90;;;;;;5029975;28;20056;-35
2023/10/31 04:20:04;;;;;;;4.45;1.42;;;10.80;99.90;;;;;;5027606;28;20490;-38
2023/10/31 04:22:31;;;;;;;5.47;1.10;;;10.70;99.90;;;;;;5030292;28;20212;-39
2023/10/31 04:24:58;;;;;;;2.58;1.38;;;10.70;99.90;;;;;;5032242;28;20058;-38
2023/10/31 04:27:25;;;;;;;3.40;1.25;;;10.70;99.90;;;;;;5030445;28;20099;-37
2023/10/31 04:29:53;;;;;;;5.10;1.67;;;10.70;99.90;;;;;;5029462;28;20548;-40
2023/10/31 04:32:25;;;;;;;1.60;1.20;;;10.60;99.90;;;;;;5034349;28;20458;-39
2023/10/31 04:34:54;;;;;;;3.72;1.48;;;10.60;99.90;;;;;;5028574;28;20124;-39
2023/10/31 04:37:21;;;;;;;4.97;1.70;;;10.60;99.90;;;;;;5031665;28;20041;-40
2023/10/31 04:39:48;;;;;;;4.13;1.48;;;10.60;99.90;;;;;;5030865;28;20068;-38
2023/10/31 04:42:15;;;;;;;3.63;1.33;;;10.60;99.90;;;;;;5027685;28;20041;-38
2023/10/31 04:44:42;;;;;;;2.95;1.52;;;10.50;99.90;;;;;;5030092;28;20049;-39
2023/10/31 04:47:09;;;;;;;3.55;1.40;;;10.50;99.90;;;;;;5026972;28;20041;-37
2023/10/31 04:49:36;;;;;;;2.45;1.23;;;10.50;99.90;;;;;;5026022;28;20421;-38
2023/10/31 04:52:04;;;;;;;2.40;1.38;;;10.50;99.90;;;;;;5042989;28;20152;-39
2023/10/31 04:54:31;;;;;;;2.90;1.50;;;10.40;99.90;;;;;;5036819;28;20045;-37
2023/10/31 04:56:58;;;;;;;5.63;1.55;;;10.40;99.90;;;;;;5030362;28;20046;-39
2023/10/31 04:59:25;;;;;;;6.85;1.70;;;10.50;99.90;;;;;;5030281;28;20317;-40
2023/10/31 05:01:52;;;;;;;3.33;1.45;;;10.40;99.90;;;;;;5027477;28;20053;-40
2023/10/31 05:04:19;;;;;;;3.55;1.50;;;10.40;99.90;;;;;;5025374;28;20099;-36
2023/10/31 05:06:46;;;;;;;2.33;1.40;;;10.40;99.90;;;;;;5024420;28;20041;-37
2023/10/31 05:09:14;;;;;;;2.80;1.38;;;10.30;99.90;;;;;;5026095;28;20037;-38
2023/10/31 05:11:41;;;;;;;4.13;1.50;;;10.30;99.90;;;;;;5035753;28;20037;-38
2023/10/31 05:14:10;;;;;;;3.78;1.45;;;10.30;99.90;;;;;;5036859;28;20060;-39
2023/10/31 05:16:43;;;;;;;2.10;1.42;;;10.30;99.90;;;;;;5033332;28;20404;-39
2023/10/31 05:19:11;;;;;;;2.72;1.27;;;10.30;99.90;;;;;;5029184;28;20061;-36
2023/10/31 05:21:38;;;;;;;3.03;1.40;;;10.30;99.90;;;;;;5032557;28;20121;-39
2023/10/31 05:24:06;;;;;;;2.95;1.20;;;10.30;99.90;;;;;;5034645;28;20410;-39
2023/10/31 05:26:33;;;;;;;4.80;1.33;;;10.30;99.90;;;;;;5032922;28;20049;-40
2023/10/31 05:29:00;;;;;;;2.25;1.40;;;10.30;99.90;;;;;;5028714;28;20069;-37
2023/10/31 05:31:27;;;;;;;6.03;1.48;;;10.30;99.90;;;;;;5032941;28;20343;-38
2023/10/31 05:33:54;;;;;;;2.75;1.30;;;10.30;99.90;;;;;;5031356;28;20046;-36
2023/10/31 05:36:27;;;;;;;4.00;1.25;;;10.30;99.90;;;;;;5033385;28;20449;-39
2023/10/31 05:38:55;;;;;;;3.00;1.25;;;10.20;99.90;;;;;;5030882;28;20045;-37
2023/10/31 05:41:22;;;;;;;5.22;1.50;;;10.20;99.90;;;;;;5029386;28;20107;-37
2023/10/31 05:43:49;;;;;;;3.40;1.40;;;10.10;99.90;;;;;;5030350;28;20538;-38
2023/10/31 05:46:16;;;;;;;2.28;1.20;;;10.10;99.90;;;;;;5024615;28;20115;-36
2023/10/31 05:48:45;;;;;;;2.78;1.10;;;10.10;99.90;;;;;;5025550;28;20057;-38
2023/10/31 05:51:17;;;;;;;2.70;1.10;;;10.10;99.90;;;;;;5033190;28;20045;-37
2023/10/31 05:53:45;;;;;;;;;;;10.10;99.90;;;;;;5036194;28;20355;-38
2023/10/31 05:56:13;;;;;;;2.78;1.38;;;10.10;99.90;;;;;;5037751;28;19928;-40
2023/10/31 05:58:41;;;;;;;2.50;1.10;;;10.10;99.90;;;;;;5030704;28;20042;-41
2023/10/31 06:01:08;;;;;;;5.57;1.20;;;10.10;99.90;;;;;;5035287;28;20068;-39
2023/10/31 06:03:36;;;;;;;2.83;1.10;;;10.10;99.90;;;;;;5032986;28;20544;-39
2023/10/31 06:06:03;;;;;;;2.60;1.55;;;10.10;99.90;;;;;;5035141;28;20087;-39
2023/10/31 06:08:31;;;;;;;3.47;1.30;;;10.10;99.90;;;;;;5029041;28;20051;-39
2023/10/31 06:10:58;;;;;;;2.20;1.10;;;10.10;99.90;;;;;;5034611;28;20498;-36
2023/10/31 06:13:26;;;;;;;2.30;1.33;;;10.00;99.90;;;;;;5031906;28;20043;-40
2023/10/31 06:15:57;;;;;;;2.58;1.17;;;10.00;99.90;;;;;;5029477;28;20092;-38
2023/10/31 06:18:28;;;;;;;4.43;1.20;;;10.10;99.90;;;;;;5030483;28;20533;-37
2023/10/31 06:20:55;;;;;;;3.83;1.10;;;10.10;99.90;;;;;;5030653;28;20476;-39
2023/10/31 06:23:22;;;;;;;2.08;1.02;;;10.10;99.90;;;;;;5029060;28;20129;-38
2023/10/31 06:25:50;;;;;;;4.00;1.33;;;10.20;99.90;;;;;;5032315;28;20080;-37
2023/10/31 06:28:18;;;;;;;4.47;1.20;;;10.20;99.90;;;;;;5033275;28;20069;-39
2023/10/31 06:30:45;;;;;;;2.80;1.10;;;10.20;99.90;;;;;;5032238;28;20537;-40
2023/10/31 06:33:12;;;;;;;4.57;1.23;;;10.30;99.90;;;;;;5029869;28;20041;-36
2023/10/31 06:35:39;;;;;;;6.32;1.30;;;10.30;99.90;;;;;;5030353;28;20061;-36
2023/10/31 06:38:06;;;;;;;1.90;1.20;;;10.30;99.90;;;;;;5035019;28;22170;-38
2023/10/31 06:40:33;;;;;;;3.47;1.17;;;10.40;99.90;;;;;;5029289;28;20390;-39
2023/10/31 06:43:02;;;;;;;1.95;1.15;;;10.40;99.90;;;;;;5024632;28;20541;-36
2023/10/31 06:45:29;;;;;;;4.20;1.63;;;10.50;99.90;;;;;;5026288;28;20072;-37
2023/10/31 06:47:56;;;;;;;3.72;1.10;;;10.40;99.90;;;;;;5027265;28;20143;-37
2023/10/31 06:50:23;;;;;;;2.30;1.20;;;10.50;99.90;;;;;;5031195;28;20111;-37
2023/10/31 06:52:51;;;;;;;4.60;1.30;;;10.60;99.90;;;;;;5032038;28;20099;-37
2023/10/31 06:55:18;;;;;;;2.42;1.20;;;10.60;99.90;;;;;;5026178;28;20041;-39
2023/10/31 06:57:45;;;;;;;3.47;1.30;;;10.70;99.90;;;;;;5025978;28;20506;-38
2023/10/31 07:00:12;;;;;;;2.58;1.15;;;10.80;99.90;;;;;;5026662;28;20053;-37
2023/10/31 07:02:39;;;;;;;2.53;1.33;;;10.70;99.90;;;;;;5025773;28;20369;-38
2023/10/31 07:05:07;;;;;;;2.88;1.52;;;10.80;99.90;;;;;;5033120;28;20045;-39
2023/10/31 07:07:34;;;;;;;3.10;1.10;;;10.80;99.90;;;;;;5029389;28;20060;-36
2023/10/31 07:10:01;;;;;;;2.95;1.30;;;10.80;99.90;;;;;;5030236;28;20057;-38
2023/10/31 07:12:29;;;;;;;4.53;1.80;;;10.70;99.90;;;;;;5032646;28;20044;-40
2023/10/31 07:14:58;;;;;;;4.28;1.40;;;10.70;99.90;;;;;;5034159;28;20057;-39
2023/10/31 07:17:26;;;;;;;5.97;1.63;;;10.70;99.90;;;;;;5031104;28;20041;-39
2023/10/31 07:19:53;;;;;;;2.60;1.35;;;10.70;99.90;;;;;;5030905;28;20108;-37
2023/10/31 07:22:22;;;;;;;2.17;1.20;;;10.70;99.90;;;;;;5032751;28;20052;-38
2023/10/31 07:24:49;;;;;;;4.03;1.75;;;10.80;99.90;;;;;;5032116;28;20042;-40
2023/10/31 07:27:16;;;;;;;3.13;1.30;;;10.80;99.90;;;;;;5030885;28;20037;-38
2023/10/31 07:29:43;;;;;;;3.72;1.15;;;10.80;99.90;;;;;;5031836;28;20054;-38
2023/10/31 07:32:10;;;;;;;1.88;1.10;;;10.80;99.90;;;;;;5035519;28;20112;-38
2023/10/31 07:34:42;;;;;;;2.10;1.17;;;10.80;99.90;;;;;;5040186;28;20103;-41
2023/10/31 07:37:09;;;;;;;2.80;1.20;;;10.80;99.90;;;;;;5043861;28;20033;-39
2023/10/31 07:39:36;;;;;;;2.30;1.30;;;10.90;99.90;;;;;;5039117;28;20037;-41
2023/10/31 07:42:03;;;;;;;3.90;1.67;;;10.80;99.90;;;;;;5033947;28;20261;-42
2023/10/31 07:44:30;;;;;;;5.53;1.30;;;10.80;99.90;;;;;;5038931;28;20037;-40
2023/10/31 07:46:57;;;;;;;3.45;1.48;;;10.90;99.90;;;;;;5032080;28;20043;-38
2023/10/31 07:49:24;;;;;;;5.00;1.30;;;10.90;99.90;;;;;;5035692;28;20065;-40
2023/10/31 07:51:51;;;;;;;2.08;1.30;;;11.00;99.90;;;;;;5032357;28;20057;-37
2023/10/31 07:54:19;;;;;;;2.28;1.20;;;11.00;99.90;;;;;;5033529;28;20046;-40
2023/10/31 07:56:46;;;;;;;2.38;1.27;;;11.00;99.90;;;;;;5033972;28;20092;-38
2023/10/31 07:59:13;;;;;;;4.72;1.13;;;11.00;99.90;;;;;;5033649;28;20068;-38
2023/10/31 08:01:40;;;;;;;2.58;1.13;;;11.00;99.90;;;;;;5038363;28;20053;-39
2023/10/31 08:04:07;;;;;;;3.67;1.05;;;11.10;99.90;;;;;;5039224;28;21676;-39
2023/10/31 08:06:34;;;;;;;6.63;1.30;;;11.00;99.90;;;;;;5044409;28;20045;-39
2023/10/31 08:09:01;;;;;;;1.95;1.13;;;11.10;99.90;;;;;;5033983;28;20152;-39
2023/10/31 08:11:28;;;;;;;3.35;1.20;;;11.00;99.90;;;;;;5032542;28;20041;-37
2023/10/31 08:13:55;;;;;;;2.60;1.35;;;11.10;99.90;;;;;;5030889;28;20045;-41
2023/10/31 08:16:23;;;;;;;4.07;1.50;;;11.10;99.90;;;;;;5030009;28;20041;-41
2023/10/31 08:18:50;;;;;;;2.38;1.30;;;11.10;99.90;;;;;;5030319;28;20124;-38
2023/10/31 08:21:17;;;;;;;2.40;1.17;;;11.10;99.90;;;;;;5030692;28;20659;-40
2023/10/31 08:23:46;;;;;;;3.20;1.63;;;11.10;99.90;;;;;;5033810;28;20075;-41
2023/10/31 08:26:13;;;;;;;3.50;1.42;;;11.20;99.90;;;;;;5029555;28;20104;-39
2023/10/31 08:28:40;;;;;;;1.92;1.20;;;11.20;99.90;;;;;;5030785;28;20052;-38
2023/10/31 08:31:08;;;;;;;5.63;2.40;;;11.20;99.90;;;;;;5028600;28;20061;-37
2023/10/31 08:33:35;;;;;;;2.10;1.30;;;11.20;99.90;;;;;;5030793;28;20512;-38
2023/10/31 08:36:02;;;;;;;5.18;1.30;;;11.20;99.90;;;;;;5029543;28;20075;-38
2023/10/31 08:38:29;;;;;;;1.88;1.27;;;11.20;99.90;;;;;;5030719;28;20422;-39
2023/10/31 08:40:59;;;;;;;5.85;1.40;;;11.20;99.90;;;;;;5029595;28;20045;-40
2023/10/31 08:43:26;;;;;;;5.20;1.48;;;11.20;99.90;;;;;;5030776;28;20041;-38
2023/10/31 08:45:54;;;;;;;4.82;1.25;;;11.20;99.90;;;;;;5027096;28;20061;-41
2023/10/31 08:48:21;;;;;;;2.28;1.33;;;11.20;99.90;;;;;;5031824;28;20130;-39
2023/10/31 08:50:48;;;;;;;3.08;1.30;;;11.20;99.90;;;;;;5035588;28;20049;-36
2023/10/31 08:53:15;;;;;;;3.10;1.40;;;11.20;99.90;;;;;;5041815;28;20056;-38
2023/10/31 08:55:44;;;;;;;3.75;1.30;;;11.10;99.90;;;;;;5039524;28;20072;-38
2023/10/31 08:58:15;;;;;;;6.07;1.50;;;11.10;99.90;;;;;;5041369;28;20045;-38
2023/10/31 09:00:42;;;;;;;1.63;1.30;;;11.10;99.90;;;;;;5041791;28;20049;-39
2023/10/31 09:03:09;;;;;;;3.78;1.25;;;11.10;99.90;;;;;;5037666;28;20049;-38
2023/10/31 09:05:36;;;;;;;2.15;1.33;;;11.10;99.90;;;;;;5035826;28;20076;-37
2023/10/31 09:08:03;;;;;;;3.45;1.90;;;11.10;99.90;;;;;;5038162;28;20266;-40
2023/10/31 09:10:32;;;;;;;2.78;1.30;;;11.20;99.90;;;;;;5034915;28;20078;-36
2023/10/31 09:12:59;;;;;;;3.92;2.10;;;11.20;99.90;;;;;;5032205;28;20057;-39
2023/10/31 09:15:26;;;;;;;3.50;1.30;;;11.40;99.90;;;;;;5030366;28;20045;-40
2023/10/31 09:17:54;;;;;;;4.03;1.40;;;11.30;99.90;;;;;;5030144;28;20049;-39
2023/10/31 09:20:21;;;;;;;3.40;1.52;;;11.30;99.90;;;;;;5029652;28;20064;-37
2023/10/31 09:22:48;;;;;;;3.22;1.67;;;11.30;99.90;;;;;;5027530;28;20049;-40
2023/10/31 09:25:15;;;;;;;4.80;1.60;;;11.20;99.90;;;;;;5029406;28;20088;-37
2023/10/31 09:27:42;;;;;;;2.72;1.40;;;11.10;99.90;;;;;;5029552;28;20136;-39
2023/10/31 09:30:09;;;;;;;3.35;1.30;;;11.20;99.90;;;;;;5029985;28;20535;-39
2023/10/31 09:32:36;;;;;;;3.75;1.30;;;11.30;99.90;;;;;;5029944;28;20041;-39
2023/10/31 09:35:04;;;;;;;2.53;1.30;;;11.20;99.90;;;;;;5028891;28;20137;-39
2023/10/31 09:37:31;;;;;;;5.43;1.67;;;11.30;99.90;;;;;;5030376;28;20057;-39
2023/10/31 09:39:58;;;;;;;2.00;1.20;;;11.30;99.90;;;;;;5029082;28;20061;-40
2023/10/31 09:42:25;;;;;;;2.40;1.20;;;11.30;99.90;;;;;;5027824;28;20041;-38
2023/10/31 09:44:53;;;;;;;4.22;1.20;;;11.40;99.90;;;;;;5025218;28;20065;-40
2023/10/31 09:47:20;;;;;;;2.13;1.30;;;11.50;99.90;;;;;;5030519;28;20049;-39
2023/10/31 09:49:47;;;;;;;3.75;1.55;;;11.70;99.90;;;;;;5029778;28;20049;-39
2023/10/31 09:52:15;;;;;;;1.77;1.30;;;11.80;99.90;;;;;;5031474;28;20104;-38
2023/10/31 09:54:43;;;;;;;1.63;1.10;;;11.70;99.90;;;;;;5032194;28;20052;-37
2023/10/31 09:57:14;;;;;;;3.65;1.30;;;11.70;99.90;;;;;;5033655;28;20041;-38
2023/10/31 09:59:41;;;;;;;4.43;1.50;;;11.80;99.90;;;;;;5030952;28;20055;-39
2023/10/31 10:02:08;;;;;;;2.55;1.30;;;11.60;99.90;;;;;;5034213;28;20453;-38
2023/10/31 10:04:37;;;;;;;6.30;1.50;;;11.60;99.90;;;;;;5028962;28;20053;-38
2023/10/31 10:07:06;;;;;;;1.92;1.20;;;11.60;99.90;;;;;;5032318;28;20059;-38
2023/10/31 10:09:33;;;;;;;1.83;1.30;;;11.60;99.90;;;;;;5037822;28;20164;-39
2023/10/31 10:12:01;;;;;;;4.70;1.30;;;11.60;99.90;;;;;;5028595;28;20045;-37
2023/10/31 10:14:31;;;;;;;3.58;1.30;;;11.40;99.90;;;;;;5031785;28;20053;-40
2023/10/31 10:16:58;;;;;;;2.80;1.30;;;11.20;99.90;;;;;;5029476;28;20426;-39
2023/10/31 10:19:26;;;;;;;4.95;1.63;;;11.30;99.90;;;;;;5034314;28;20156;-39
2023/10/31 10:21:56;;;;;;;5.03;1.63;;;11.20;99.90;;;;;;5031534;28;20057;-38
2023/10/31 10:24:27;;;;;;;4.40;1.45;;;11.10;99.90;;;;;;5029895;28;20445;-41
2023/10/31 10:26:54;;;;;;;3.28;1.33;;;11.20;99.90;;;;;;5031657;28;20042;-39
2023/10/31 10:29:21;;;;;;;5.32;2.63;;;11.30;99.90;;;;;;5029806;28;20064;-40
2023/10/31 10:31:48;;;;;;;3.20;1.77;;;11.30;99.90;;;;;;5028161;28;20045;-39
2023/10/31 10:34:16;;;;;;;3.22;1.58;;;11.40;99.90;;;;;;5035406;28;20426;-40
2023/10/31 10:36:49;;;;;;;3.80;1.50;;;11.60;99.90;;;;;;5034531;28;20071;-40
2023/10/31 10:39:22;;;;;;;3.45;1.48;;;11.60;99.90;;;;;;5029788;28;20042;-38
2023/10/31 10:41:55;;;;;;;3.83;1.60;;;11.40;99.90;;;;;;5030873;28;20057;-36
2023/10/31 10:44:35;;;;;;;4.70;1.70;;;11.50;99.90;;;;;;5029339;28;20041;-40
2023/10/31 10:47:06;;;;;;;3.08;1.50;;;11.50;99.90;;;;;;5028207;28;20115;-40
2023/10/31 10:49:38;;;;;;;3.75;1.55;;;11.60;99.90;;;;;;5030978;28;20354;-40
2023/10/31 10:52:35;;;;;;;2.35;1.60;;;11.70;99.90;;;;;;5034154;28;20101;-40
2023/10/31 10:55:13;;;;;;;2.67;1.70;;;11.70;99.90;;;;;;5043177;28;20148;-42
2023/10/31 10:58:03;;;;;;;2.55;1.55;;;11.70;99.90;;;;;;5042774;28;20068;-38
2023/10/31 11:00:31;;;;;;;4.50;2.40;;;11.70;99.90;;;;;;5037219;28;20041;-39
2023/10/31 11:02:59;;;;;;;2.92;1.55;;;11.90;99.90;;;;;;5032049;28;20042;-38
2023/10/31 11:05:27;;;;;;;3.53;1.73;;;12.00;99.90;;;;;;5034244;28;20541;-38
2023/10/31 11:07:57;;;;;;;3.53;2.13;;;11.90;99.90;;;;;;5041528;28;20053;-38
2023/10/31 11:10:27;;;;;;;2.90;1.80;;;12.00;99.90;;;;;;5043248;28;20062;-39
2023/10/31 11:12:54;;;;;;;4.60;2.20;;;12.10;99.90;;;;;;5037493;28;20050;-39
2023/10/31 11:15:23;;;;;;;2.20;1.50;;;12.00;99.90;;;;;;5039628;28;20038;-39
2023/10/31 11:17:52;;;;;;;3.35;1.77;;;12.20;99.90;;;;;;5037860;28;20060;-38
2023/10/31 11:20:19;;;;;;;3.58;1.63;;;12.20;99.90;;;;;;5042882;28;20068;-40
2023/10/31 11:22:51;;;;;;;4.50;1.83;;;12.40;99.90;;;;;;5033501;28;20049;-40
2023/10/31 11:25:23;;;;;;;4.63;1.98;;;12.40;99.90;;;;;;5028286;28;20514;-39
2023/10/31 11:28:17;;;;;;;4.63;2.03;;;12.40;99.90;;;;;;5030172;28;20175;-38
2023/10/31 11:30:49;;;;;;;4.20;1.80;;;12.60;99.90;;;;;;5031028;28;20059;-38
2023/10/31 11:33:20;;;;;;;3.85;1.80;;;12.70;99.90;;;;;;5031661;28;20058;-37
2023/10/31 11:35:51;;;;;;;6.43;2.00;;;12.90;99.90;;;;;;5031829;28;20080;-40
2023/10/31 11:38:33;;;;;;;4.47;1.85;;;12.80;99.90;;;;;;5030853;28;20344;-40
2023/10/31 11:41:02;;;;;;;4.03;1.80;;;12.80;99.90;;;;;;5032023;28;20506;-39
2023/10/31 11:43:38;;;;;;;3.80;2.00;;;12.90;99.90;;;;;;5026413;28;20100;-40
2023/10/31 11:46:07;;;;;;;5.07;1.77;;;13.00;99.90;;;;;;5028324;28;20045;-40
2023/10/31 11:48:46;;;;;;;5.07;1.92;;;12.90;99.90;;;;;;5028215;28;20549;-39
2023/10/31 11:51:14;;;;;;;5.93;2.00;;;12.80;99.90;;;;;;5031892;28;20489;-36
2023/10/31 11:53:41;;;;;;;5.18;1.83;;;12.80;99.90;;;;;;5026970;28;20061;-39
2023/10/31 11:56:19;;;;;;;4.25;2.05;;;12.70;99.90;;;;;;5033204;28;20037;-38
2023/10/31 11:58:55;;;;;;;3.20;1.80;;;12.70;99.90;;;;;;5037538;28;20056;-40
2023/10/31 12:01:22;;;;;;;4.82;2.50;;;12.90;99.90;;;;;;5031045;28;20501;-39
2023/10/31 12:03:51;;;;;;;4.75;2.10;;;13.10;99.90;;;;;;5027867;28;20043;-36
2023/10/31 12:06:20;;;;;;;3.70;1.70;;;13.00;99.90;;;;;;5030095;28;20572;-38
2023/10/31 12:08:48;;;;;;;4.70;1.90;;;13.10;99.90;;;;;;5029464;28;20099;-41
2023/10/31 12:11:20;;;;;;;5.78;1.90;;;13.20;99.90;;;;;;5025850;28;20037;-40
2023/10/31 12:14:00;;;;;;;3.05;1.90;;;13.10;99.90;;;;;;5030604;28;20051;-40
2023/10/31 12:16:32;;;;;;;4.35;2.17;;;13.00;99.90;;;;;;5024205;28;20065;-39
2023/10/31 12:19:05;;;;;;;4.40;1.80;;;12.80;99.90;;;;;;5029904;28;20045;-41
2023/10/31 12:21:37;;;;;;;4.45;2.30;;;12.40;99.90;;;;;;5023787;28;20180;-40
2023/10/31 12:24:05;;;;;;;;;;;12.50;99.90;;;;;;5028488;28;20057;-38
2023/10/31 12:26:35;;;;;;;4.53;2.20;;;12.50;99.90;;;;;;5027576;28;20012;-38
2023/10/31 12:29:08;;;;;;;6.78;2.15;;;12.50;99.90;;;;;;5028702;28;20060;-39
2023/10/31 12:31:35;;;;;;;4.32;2.20;;;12.40;99.90;;;;;;5028825;28;20056;-38
2023/10/31 12:34:06;;;;;;;4.97;2.10;;;12.30;99.90;;;;;;5027977;28;20048;-39
2023/10/31 12:36:35;;;;;;;4.75;2.10;;;12.20;99.90;;;;;;5035789;28;20164;-38
2023/10/31 12:39:05;;;;;;;5.65;2.20;;;12.20;99.90;;;;;;5037241;28;20052;-39
2023/10/31 12:41:34;;;;;;;6.22;1.95;;;12.20;99.90;;;;;;5026849;28;20042;-37
2023/10/31 12:44:01;;;;;;;3.90;1.90;;;12.30;99.90;;;;;;5029313;28;20041;-37
2023/10/31 12:46:30;;;;;;;4.82;2.00;;;12.40;99.90;;;;;;5026799;28;20049;-38
2023/10/31 12:49:00;;;;;;;5.30;1.92;;;12.50;99.90;;;;;;5027878;28;20059;-38
2023/10/31 12:51:27;;;;;;;3.75;1.88;;;12.60;99.90;;;;;;5028539;28;20104;-38